Time;durP1;ratioP1;P1;durP2;ratioP2;P2;SDS_P1;SDS_P2;PMS_P1;PMS_P2;Temp;Humidity;BMP_temperature;BMP_pressure;BME280_temperature;BME280_humidity;BME280_pressure;Samples;Min_cycle;Max_cycle;Signal;HPM_P1;HPM_P2
2021/01/21 00:02:06;;;;;;;;;;;9.30;72.60;;;;;;5059859;28;19915;-72
2021/01/21 00:04:32;;;;;;;;;;;9.30;71.20;;;;;;5034458;28;19908;-72
2021/01/21 00:06:58;;;;;;;;;;;9.30;71.30;;;;;;5035621;28;19920;-72
2021/01/21 00:09:24;;;;;;;;;;;9.30;71.90;;;;;;5053706;28;19916;-73
2021/01/21 00:11:50;;;;;;;;;;;9.30;71.90;;;;;;5036721;28;19935;-72
2021/01/21 00:14:16;;;;;;;;;;;9.20;72.30;;;;;;5054588;28;19904;-73
2021/01/21 00:16:41;;;;;;;;;;;9.20;72.20;;;;;;5059305;28;19912;-72
2021/01/21 00:19:07;;;;;;;;;;;9.10;72.10;;;;;;5040925;28;19916;-72
2021/01/21 00:21:32;;;;;;;;;;;9.20;71.80;;;;;;5055466;28;19919;-72
2021/01/21 00:23:58;;;;;;;;;;;9.10;72.40;;;;;;5037532;28;19931;-72
2021/01/21 00:26:27;;;;;;;;;;;9.10;71.50;;;;;;5037206;28;20368;-73
2021/01/21 00:28:53;;;;;;;;;;;9.10;74.00;;;;;;5042438;28;19905;-73
2021/01/21 00:31:18;;;;;;;;;;;9.00;73.70;;;;;;5016179;28;19931;-73
2021/01/21 00:33:44;;;;;;;;;;;9.00;72.70;;;;;;5042355;28;19916;-72
2021/01/21 00:36:10;;;;;;;;;;;8.90;73.40;;;;;;5023096;28;20361;-72
2021/01/21 00:38:36;;;;;;;;;;;8.90;73.70;;;;;;5059384;28;20364;-73
2021/01/21 00:41:01;;;;;;;;;;;8.90;74.10;;;;;;5039328;28;19915;-72
2021/01/21 00:43:27;;;;;;;;;;;9.00;73.60;;;;;;5036036;28;20356;-73
2021/01/21 00:45:52;;;;;;;;;;;9.00;73.50;;;;;;5028508;28;19951;-72
2021/01/21 00:48:21;;;;;;;;;;;8.90;73.70;;;;;;5035896;28;19908;-73
2021/01/21 00:50:47;;;;;;;;;;;8.90;74.20;;;;;;5041980;28;20019;-73
2021/01/21 00:53:12;;;;;;;;;;;8.90;73.80;;;;;;5039994;28;19995;-72
2021/01/21 00:55:38;;;;;;;;;;;8.90;74.40;;;;;;5038759;28;19936;-72
2021/01/21 00:58:03;;;;;;;;;;;8.90;74.10;;;;;;5054807;28;19966;-73
2021/01/21 01:00:29;;;;;;;;;;;8.90;73.80;;;;;;5041831;28;20351;-72
2021/01/21 01:02:55;;;;;;;;;;;8.90;75.20;;;;;;5054266;28;20384;-72
2021/01/21 01:05:21;;;;;;;;;;;8.80;75.50;;;;;;5038356;28;19932;-72
2021/01/21 01:07:46;;;;;;;;;;;8.70;75.30;;;;;;5060548;28;19911;-72
2021/01/21 01:10:12;;;;;;;;;;;8.70;76.80;;;;;;5037902;28;20370;-73
2021/01/21 01:12:38;;;;;;;;;;;8.60;76.60;;;;;;5060539;28;19912;-73
2021/01/21 01:15:05;;;;;;;;;;;8.60;76.30;;;;;;5044049;28;19909;-73
2021/01/21 01:17:31;;;;;;;;;;;8.60;76.10;;;;;;5055701;28;19920;-73
2021/01/21 01:19:56;;;;;;;;;;;8.60;76.10;;;;;;5055379;28;19909;-73
2021/01/21 01:22:22;;;;;;;;;;;8.70;76.30;;;;;;5053989;28;19916;-73
2021/01/21 01:24:47;;;;;;;;;;;8.60;76.60;;;;;;5044487;28;19911;-72
2021/01/21 01:27:13;;;;;;;;;;;8.60;76.60;;;;;;5041157;28;19909;-73
2021/01/21 01:29:39;;;;;;;;;;;8.50;77.10;;;;;;5042655;28;19994;-72
2021/01/21 01:32:05;;;;;;;;;;;8.50;77.00;;;;;;5037951;28;20014;-72
2021/01/21 01:34:31;;;;;;;;;;;8.50;77.30;;;;;;5059061;28;19912;-73
2021/01/21 01:36:56;;;;;;;;;;;8.50;77.60;;;;;;5056776;28;19915;-73
2021/01/21 01:39:22;;;;;;;;;;;8.50;77.20;;;;;;5045937;28;19912;-73
2021/01/21 01:41:48;;;;;;;;;;;8.50;77.10;;;;;;5037630;28;19909;-72
2021/01/21 01:44:14;;;;;;;;;;;8.50;77.50;;;;;;5062485;28;19908;-72
2021/01/21 01:46:39;;;;;;;;;;;8.40;77.60;;;;;;5041861;28;20344;-73
2021/01/21 01:49:05;;;;;;;;;;;8.40;77.60;;;;;;5019949;28;19958;-72
2021/01/21 01:51:31;;;;;;;;;;;8.40;77.40;;;;;;5036565;28;20342;-73
2021/01/21 01:53:59;;;;;;;;;;;8.40;77.60;;;;;;5044802;28;19909;-73
2021/01/21 01:56:26;;;;;;;;;;;8.40;77.60;;;;;;5031601;28;19908;-73
2021/01/21 01:58:51;;;;;;;;;;;8.40;77.90;;;;;;5022616;28;19952;-73
2021/01/21 02:01:17;;;;;;;;;;;8.40;77.30;;;;;;5039369;28;19952;-72
2021/01/21 02:03:43;;;;;;;;;;;8.40;77.70;;;;;;5061416;28;19920;-73
2021/01/21 02:06:09;;;;;;;;;;;8.40;78.10;;;;;;5025662;28;20300;-73
2021/01/21 02:08:34;;;;;;;;;;;8.40;77.40;;;;;;5061854;28;19991;-72
2021/01/21 02:11:03;;;;;;;;;;;8.40;78.10;;;;;;5016614;28;19905;-72
2021/01/21 02:13:47;;;;;;;;;;;8.40;78.30;;;;;;5061708;28;19909;-73
2021/01/21 02:16:17;;;;;;;;;;;8.40;77.90;;;;;;5047178;28;19959;-73
2021/01/21 02:18:43;;;;;;;;;;;8.40;78.10;;;;;;5051131;28;19908;-73
2021/01/21 02:21:28;;;;;;;;;;;8.40;78.00;;;;;;5030865;28;19908;-73
2021/01/21 02:24:05;;;;;;;;;;;8.40;78.10;;;;;;5041866;28;20004;-73
2021/01/21 02:26:40;;;;;;;;;;;8.40;78.60;;;;;;5040997;28;19912;-73
2021/01/21 02:29:31;;;;;;;;;;;8.40;78.10;;;;;;5062770;28;19909;-73
2021/01/21 02:32:09;;;;;;;;;;;8.40;79.00;;;;;;5053167;28;19915;-73
2021/01/21 02:34:53;;;;;;;;;;;8.40;79.10;;;;;;5043329;28;19913;-73
2021/01/21 02:37:22;;;;;;;;;;;8.40;79.20;;;;;;5044826;28;19912;-73
2021/01/21 02:39:49;;;;;;;;;;;8.40;78.90;;;;;;5049800;28;19905;-73
2021/01/21 02:42:15;;;;;;;;;;;8.40;78.80;;;;;;5040656;28;20019;-73
2021/01/21 02:44:41;;;;;;;;;;;8.40;78.40;;;;;;5029423;28;20013;-73
2021/01/21 02:47:07;;;;;;;;;;;8.40;78.30;;;;;;5058788;28;19909;-73
2021/01/21 02:49:33;;;;;;;;;;;8.30;78.60;;;;;;5064626;28;20307;-73
2021/01/21 02:52:15;;;;;;;;;;;8.40;78.60;;;;;;5059577;28;19956;-73
2021/01/21 02:54:40;;;;;;;;;;;8.40;78.20;;;;;;5058369;28;19915;-73
2021/01/21 02:57:10;;;;;;;;;;;8.40;79.10;;;;;;5049982;28;19913;-72
2021/01/21 02:59:38;;;;;;;;;;;8.40;78.50;;;;;;5056148;28;19908;-73
2021/01/21 03:02:06;;;;;;;;;;;8.40;77.90;;;;;;5043585;28;20007;-74
2021/01/21 03:04:32;;;;;;;;;;;8.40;78.30;;;;;;5030304;28;19908;-73
2021/01/21 03:06:59;;;;;;;;;;;8.30;78.30;;;;;;5040227;28;20007;-73
2021/01/21 03:09:24;;;;;;;;;;;8.40;77.50;;;;;;5041794;28;20414;-73
2021/01/21 03:11:50;;;;;;;;;;;8.40;77.70;;;;;;5039920;28;19909;-73
2021/01/21 03:14:15;;;;;;;;;;;8.40;78.70;;;;;;5044577;28;19905;-73
2021/01/21 03:16:41;;;;;;;;;;;8.30;78.00;;;;;;5047145;28;19908;-73
2021/01/21 03:19:07;;;;;;;;;;;8.30;77.90;;;;;;5047225;28;19974;-73
2021/01/21 03:21:32;;;;;;;;;;;8.30;77.90;;;;;;5032130;28;19919;-73
2021/01/21 03:23:58;;;;;;;;;;;8.40;78.10;;;;;;5049703;28;19911;-73
2021/01/21 03:26:24;;;;;;;;;;;8.40;78.20;;;;;;5049484;28;19904;-73
2021/01/21 03:28:49;;;;;;;;;;;8.40;77.90;;;;;;5044743;28;19944;-74
2021/01/21 03:31:15;;;;;;;;;;;8.40;77.70;;;;;;5050508;28;19963;-73
2021/01/21 03:33:40;;;;;;;;;;;8.40;78.50;;;;;;5045900;28;19988;-73
2021/01/21 03:36:06;;;;;;;;;;;8.40;78.20;;;;;;5062416;28;19916;-73
2021/01/21 03:38:32;;;;;;;;;;;8.40;78.10;;;;;;5046398;28;20005;-74
2021/01/21 03:40:57;;;;;;;;;;;8.40;77.80;;;;;;5045773;28;19904;-73
2021/01/21 03:43:23;;;;;;;;;;;8.40;78.30;;;;;;5045481;28;19905;-73
2021/01/21 03:45:48;;;;;;;;;;;8.40;78.00;;;;;;5043093;28;19912;-74
2021/01/21 03:48:14;;;;;;;;;;;8.50;78.40;;;;;;5044390;28;19911;-73
2021/01/21 03:50:43;;;;;;;;;;;8.40;78.60;;;;;;5040968;28;19955;-73
2021/01/21 03:53:09;;;;;;;;;;;8.50;78.50;;;;;;5047197;28;20602;-73
2021/01/21 03:55:34;;;;;;;;;;;8.50;78.20;;;;;;5047731;28;19913;-73
2021/01/21 03:58:00;;;;;;;;;;;8.50;78.20;;;;;;5040189;28;20391;-73
2021/01/21 04:00:26;;;;;;;;;;;8.40;78.20;;;;;;5064763;28;19909;-73
2021/01/21 04:02:51;;;;;;;;;;;8.50;78.40;;;;;;5046586;28;20394;-73
2021/01/21 04:05:17;;;;;;;;;;;8.40;78.40;;;;;;5040353;28;19904;-73
2021/01/21 04:07:42;;;;;;;;;;;8.40;78.20;;;;;;5047118;28;19909;-73
2021/01/21 04:10:08;;;;;;;;;;;8.40;78.80;;;;;;5043141;28;19905;-73
2021/01/21 04:12:34;;;;;;;;;;;8.40;78.80;;;;;;5027446;28;20377;-73
2021/01/21 04:15:00;;;;;;;;;;;8.40;78.60;;;;;;5039058;28;20003;-73
2021/01/21 04:17:25;;;;;;;;;;;8.40;78.40;;;;;;5048980;28;20007;-73
2021/01/21 04:19:51;;;;;;;;;;;8.30;78.60;;;;;;5044398;28;19964;-73
2021/01/21 04:22:16;;;;;;;;;;;8.30;78.50;;;;;;5067756;28;19913;-73
2021/01/21 04:24:42;;;;;;;;;;;8.30;79.20;;;;;;5032767;28;20421;-73
2021/01/21 04:27:07;;;;;;;;;;;8.20;79.10;;;;;;5063169;28;19912;-74
2021/01/21 04:29:33;;;;;;;;;;;8.20;78.90;;;;;;5047441;28;19912;-73
2021/01/21 04:31:59;;;;;;;;;;;8.20;79.00;;;;;;5066028;28;20287;-74
2021/01/21 04:34:24;;;;;;;;;;;8.20;79.10;;;;;;5043661;28;19987;-73
2021/01/21 04:36:50;;;;;;;;;;;8.20;78.90;;;;;;5066324;28;19990;-73
2021/01/21 04:39:15;;;;;;;;;;;8.20;79.50;;;;;;5060714;28;20547;-75
2021/01/21 04:41:41;;;;;;;;;;;8.20;79.00;;;;;;5043895;28;20431;-72
2021/01/21 04:44:10;;;;;;;;;;;8.20;78.80;;;;;;5063570;28;20003;-73
2021/01/21 04:46:35;;;;;;;;;;;8.20;78.80;;;;;;5058825;28;19911;-73
2021/01/21 04:49:02;;;;;;;;;;;8.20;78.70;;;;;;5054523;28;19908;-73
2021/01/21 04:51:28;;;;;;;;;;;8.20;78.50;;;;;;5039853;28;19905;-73
2021/01/21 04:53:57;;;;;;;;;;;8.30;78.40;;;;;;5023147;28;19913;-73
2021/01/21 04:56:25;;;;;;;;;;;8.30;78.10;;;;;;5039998;28;19913;-74
2021/01/21 04:58:53;;;;;;;;;;;8.30;77.90;;;;;;5046654;28;19905;-73
2021/01/21 05:01:19;;;;;;;;;;;8.30;78.00;;;;;;5034268;28;20376;-73
2021/01/21 05:03:45;;;;;;;;;;;8.30;78.10;;;;;;5063309;28;19912;-73
2021/01/21 05:06:11;;;;;;;;;;;8.30;78.30;;;;;;5023473;28;19908;-73
2021/01/21 05:08:37;;;;;;;;;;;8.30;77.90;;;;;;5049492;28;19916;-73
2021/01/21 05:11:03;;;;;;;;;;;8.30;77.90;;;;;;5042999;28;19953;-73
2021/01/21 05:13:29;;;;;;;;;;;8.30;78.30;;;;;;5038703;28;19912;-73
2021/01/21 05:15:55;;;;;;;;;;;8.40;77.10;;;;;;5058596;28;19905;-74
2021/01/21 05:18:27;;;;;;;;;;;8.40;77.20;;;;;;5040412;28;20001;-73
2021/01/21 05:20:52;;;;;;;;;;;8.40;77.00;;;;;;5062165;28;20268;-72
2021/01/21 05:23:18;;;;;;;;;;;8.50;76.30;;;;;;5063614;28;19919;-73
2021/01/21 05:25:44;;;;;;;;;;;8.50;76.70;;;;;;5043827;28;19956;-73
2021/01/21 05:28:10;;;;;;;;;;;8.50;76.50;;;;;;5044270;28;20368;-73
2021/01/21 05:30:36;;;;;;;;;;;8.60;76.30;;;;;;5063687;28;19951;-73
2021/01/21 05:33:02;;;;;;;;;;;8.50;76.10;;;;;;5063390;28;19921;-73
2021/01/21 05:35:28;;;;;;;;;;;8.50;76.00;;;;;;5032047;28;19950;-73
2021/01/21 05:37:56;;;;;;;;;;;8.60;75.20;;;;;;5057640;28;19904;-73
2021/01/21 05:40:22;;;;;;;;;;;8.60;75.30;;;;;;5040004;28;20367;-73
2021/01/21 05:42:50;;;;;;;;;;;8.70;75.70;;;;;;5046765;28;20402;-74
2021/01/21 05:45:17;;;;;;;;;;;8.70;75.10;;;;;;5045230;28;19913;-73
2021/01/21 05:47:42;;;;;;;;;;;8.70;74.70;;;;;;5038708;28;19995;-73
2021/01/21 05:50:11;;;;;;;;;;;8.70;75.00;;;;;;5043675;28;20367;-73
2021/01/21 05:52:37;;;;;;;;;;;8.80;75.00;;;;;;5040902;28;20341;-73
2021/01/21 05:55:03;;;;;;;;;;;8.80;75.00;;;;;;5043472;28;19909;-74
2021/01/21 05:57:30;;;;;;;;;;;8.80;74.60;;;;;;5043087;28;19913;-73
2021/01/21 05:59:56;;;;;;;;;;;8.80;74.40;;;;;;5046652;28;20159;-73
2021/01/21 06:02:21;;;;;;;;;;;8.90;73.80;;;;;;5065602;28;19946;-81
2021/01/21 06:04:50;;;;;;;;;;;8.90;74.30;;;;;;5052029;28;19908;-72
2021/01/21 06:07:20;;;;;;;;;;;8.90;74.40;;;;;;5063477;28;19915;-73
2021/01/21 06:09:46;;;;;;;;;;;9.00;73.80;;;;;;5060369;28;20018;-73
2021/01/21 06:12:12;;;;;;;;;;;9.00;73.70;;;;;;5024785;28;19996;-72
2021/01/21 06:14:37;;;;;;;;;;;9.00;73.50;;;;;;5049998;28;19912;-72
2021/01/21 06:17:03;;;;;;;;;;;9.10;73.40;;;;;;5041394;28;19917;-73
2021/01/21 06:19:29;;;;;;;;;;;9.10;73.10;;;;;;5050440;28;19920;-72
2021/01/21 06:21:56;;;;;;;;;;;9.20;73.00;;;;;;5043654;28;20334;-73
2021/01/21 06:24:26;;;;;;;;;;;9.20;72.50;;;;;;5030060;28;19958;-74
2021/01/21 06:26:53;;;;;;;;;;;9.20;72.70;;;;;;5046134;28;19905;-73
2021/01/21 06:29:19;;;;;;;;;;;9.30;71.90;;;;;;5042157;28;19908;-70
2021/01/21 06:31:49;;;;;;;;;;;9.40;71.80;;;;;;5044940;28;20654;-73
2021/01/21 06:34:24;;;;;;;;;;;9.40;72.20;;;;;;5041346;28;20272;-74
2021/01/21 06:36:57;;;;;;;;;;;9.50;72.00;;;;;;5037409;28;19912;-72
2021/01/21 06:39:32;;;;;;;;;;;9.40;72.20;;;;;;5068232;28;19912;-72
2021/01/21 06:41:59;;;;;;;;;;;9.40;71.80;;;;;;5055248;28;19955;-72
2021/01/21 06:44:25;;;;;;;;;;;9.50;71.10;;;;;;5045552;28;19904;-75
2021/01/21 06:46:52;;;;;;;;;;;9.60;71.40;;;;;;5053010;28;20012;-77
2021/01/21 06:49:19;;;;;;;;;;;9.60;71.30;;;;;;5080378;28;19915;-80
2021/01/21 06:51:51;;;;;;;;;;;9.60;71.20;;;;;;5041298;28;19912;-74
2021/01/21 06:54:17;;;;;;;;;;;9.60;71.20;;;;;;5042918;28;20489;-74
2021/01/21 06:56:42;;;;;;;;;;;9.60;71.20;;;;;;5042370;28;20054;-74
2021/01/21 06:59:08;;;;;;;;;;;9.60;70.90;;;;;;5045979;28;19924;-75
2021/01/21 07:01:40;;;;;;;;;;;9.70;69.90;;;;;;5061421;28;19927;-75
2021/01/21 07:04:18;;;;;;;;;;;9.70;70.90;;;;;;5045921;28;19920;-73
2021/01/21 07:06:53;;;;;;;;;;;9.70;70.30;;;;;;5046817;28;19908;-81
2021/01/21 07:09:23;;;;;;;;;;;9.80;69.80;;;;;;5027982;28;19911;-73
2021/01/21 07:11:56;;;;;;;;;;;9.80;69.50;;;;;;5050698;28;19911;-74
2021/01/21 07:14:22;;;;;;;;;;;9.90;69.20;;;;;;5050859;28;19916;-79
2021/01/21 07:16:49;;;;;;;;;;;10.00;70.10;;;;;;5034952;28;19924;-80
2021/01/21 07:19:15;;;;;;;;;;;9.90;70.10;;;;;;5031277;28;19917;-80
2021/01/21 07:21:50;;;;;;;;;;;9.90;69.70;;;;;;5046948;28;19960;-74
2021/01/21 07:24:19;;;;;;;;;;;10.10;69.60;;;;;;5064396;28;19916;-74
2021/01/21 07:26:48;;;;;;;;;;;10.10;69.50;;;;;;5048453;28;19919;-73
2021/01/21 07:29:14;;;;;;;;;;;10.20;69.50;;;;;;5059192;28;19999;-73
2021/01/21 07:31:52;;;;;;;;;;;10.20;69.30;;;;;;5040684;28;19987;-74
2021/01/21 07:34:23;;;;;;;;;;;10.10;69.90;;;;;;5029441;28;20357;-74
2021/01/21 07:37:07;;;;;;;;;;;10.10;70.80;;;;;;5065383;28;19955;-74
2021/01/21 07:39:49;;;;;;;;;;;10.30;68.90;;;;;;5032710;28;19923;-73
2021/01/21 07:42:15;;;;;;;;;;;10.30;70.30;;;;;;5046670;28;20004;-74
2021/01/21 07:45:02;;;;;;;;;;;10.50;68.70;;;;;;5066715;28;19972;-74
2021/01/21 07:47:30;;;;;;;;;;;10.50;69.50;;;;;;5047386;28;20268;-74
2021/01/21 07:50:15;;;;;;;;;;;10.60;70.30;;;;;;5069739;28;19948;-73
2021/01/21 07:52:44;;;;;;;;;;;10.60;71.10;;;;;;5043441;28;19908;-73
2021/01/21 07:55:10;;;;;;;;;;;10.50;73.00;;;;;;5042966;28;19916;-72
2021/01/21 07:57:36;;;;;;;;;;;10.30;75.90;;;;;;5045630;28;19913;-72
2021/01/21 08:00:09;;;;;;;;;;;9.90;79.90;;;;;;5044116;28;19919;-73
2021/01/21 08:02:45;;;;;;;;;;;9.60;81.90;;;;;;5051460;28;19946;-72
2021/01/21 08:05:11;;;;;;;;;;;9.40;83.30;;;;;;5038391;28;19908;-75
2021/01/21 08:07:42;;;;;;;;;;;9.10;83.90;;;;;;5045408;28;19930;-73
2021/01/21 08:10:08;;;;;;;;;;;8.90;84.00;;;;;;5048873;28;20562;-73
2021/01/21 08:12:34;;;;;;;;;;;8.90;83.50;;;;;;5060370;28;19960;-72
2021/01/21 08:14:59;;;;;;;;;;;8.70;83.30;;;;;;5066094;28;19947;-73
2021/01/21 08:17:25;;;;;;;;;;;8.70;83.50;;;;;;5045877;28;20360;-73
2021/01/21 08:19:50;;;;;;;;;;;8.60;82.90;;;;;;5027597;28;19913;-72
2021/01/21 08:22:16;;;;;;;;;;;8.60;80.70;;;;;;5046827;28;19951;-73
2021/01/21 08:25:00;;;;;;;;;;;8.50;81.90;;;;;;5047880;28;19970;-73
2021/01/21 08:27:42;;;;;;;;;;;8.40;81.10;;;;;;5066033;28;19923;-74
2021/01/21 08:30:18;;;;;;;;;;;8.40;81.60;;;;;;5058132;28;19913;-73
2021/01/21 08:32:44;;;;;;;;;;;8.30;81.40;;;;;;5044377;28;20252;-73
2021/01/21 08:35:21;;;;;;;;;;;8.20;81.20;;;;;;5045303;28;19909;-73
2021/01/21 08:37:47;;;;;;;;;;;8.20;81.80;;;;;;5058450;28;19994;-73
2021/01/21 08:40:13;;;;;;;;;;;8.20;81.50;;;;;;5035542;28;19912;-74
2021/01/21 08:42:39;;;;;;;;;;;8.10;81.70;;;;;;5042102;28;20406;-74
2021/01/21 08:45:05;;;;;;;;;;;8.00;81.50;;;;;;5060596;28;19908;-74
2021/01/21 08:47:40;;;;;;;;;;;8.00;81.60;;;;;;5047098;28;19935;-74
2021/01/21 08:50:06;;;;;;;;;;;8.00;80.50;;;;;;5063190;28;19912;-74
2021/01/21 08:52:32;;;;;;;;;;;8.00;80.20;;;;;;5063574;28;19984;-73
2021/01/21 08:54:58;;;;;;;;;;;8.00;80.10;;;;;;5070283;28;19912;-74
2021/01/21 08:57:24;;;;;;;;;;;8.00;80.40;;;;;;5043202;28;19913;-73
2021/01/21 08:59:50;;;;;;;;;;;7.90;80.20;;;;;;5047339;28;19931;-74
2021/01/21 09:02:35;;;;;;;;;;;7.90;80.80;;;;;;5037748;28;19916;-74
2021/01/21 09:05:04;;;;;;;;;;;8.00;80.30;;;;;;5039878;28;19995;-76
2021/01/21 09:07:29;;;;;;;;;;;7.90;80.20;;;;;;5035909;28;19917;-74
2021/01/21 09:09:55;;;;;;;;;;;8.00;80.50;;;;;;5063090;28;19909;-75
2021/01/21 09:12:22;;;;;;;;;;;7.90;80.10;;;;;;5028166;28;20172;-73
2021/01/21 09:15:01;;;;;;;;;;;7.90;80.10;;;;;;5059093;28;20363;-75
2021/01/21 09:17:27;;;;;;;;;;;7.90;80.30;;;;;;5055360;28;19904;-71
2021/01/21 09:19:53;;;;;;;;;;;8.00;80.80;;;;;;5046703;28;19939;-72
2021/01/21 09:22:22;;;;;;;;;;;8.00;80.60;;;;;;5048407;28;19999;-73
2021/01/21 09:24:54;;;;;;;;;;;8.10;80.40;;;;;;5045032;28;19938;-73
2021/01/21 09:27:21;;;;;;;;;;;8.10;80.80;;;;;;5064941;28;19913;-73
2021/01/21 09:30:07;;;;;;;;;;;8.00;80.50;;;;;;5046358;28;19935;-73
2021/01/21 09:32:37;;;;;;;;;;;8.00;81.30;;;;;;5045854;28;20733;-72
2021/01/21 09:35:11;;;;;;;;;;;8.10;81.10;;;;;;5066107;28;19908;-72
2021/01/21 09:37:38;;;;;;;;;;;8.10;81.70;;;;;;5048894;28;20038;-73
2021/01/21 09:40:05;;;;;;;;;;;8.10;81.20;;;;;;5068042;28;19916;-73
2021/01/21 09:42:30;;;;;;;;;;;8.10;80.40;;;;;;5068088;28;19968;-74
2021/01/21 09:44:56;;;;;;;;;;;8.10;80.80;;;;;;5069161;28;19904;-72
2021/01/21 09:47:22;;;;;;;;;;;8.20;80.40;;;;;;5033791;28;19916;-73
2021/01/21 09:49:50;;;;;;;;;;;8.20;81.00;;;;;;5050432;28;19970;-75
2021/01/21 09:52:16;;;;;;;;;;;8.20;81.10;;;;;;5064718;28;20350;-73
2021/01/21 09:54:42;;;;;;;;;;;8.20;80.40;;;;;;5030554;28;19975;-72
2021/01/21 09:57:08;;;;;;;;;;;8.20;81.00;;;;;;5049621;28;19913;-73
2021/01/21 09:59:33;;;;;;;;;;;8.20;80.50;;;;;;5046749;28;19958;-73
2021/01/21 10:01:59;;;;;;;;;;;8.10;80.30;;;;;;5040609;28;19963;-73
2021/01/21 10:04:25;;;;;;;;;;;8.00;80.20;;;;;;5032232;28;19963;-73
2021/01/21 10:06:50;;;;;;;;;;;8.00;80.20;;;;;;5043533;28;20007;-73
2021/01/21 10:09:16;;;;;;;;;;;8.10;80.60;;;;;;5059869;28;19908;-73
2021/01/21 10:11:42;;;;;;;;;;;8.10;80.10;;;;;;5044229;28;19915;-73
2021/01/21 10:14:08;;;;;;;;;;;8.10;80.90;;;;;;5047374;28;19920;-73
2021/01/21 10:16:34;;;;;;;;;;;8.10;79.60;;;;;;5043625;28;19909;-73
2021/01/21 10:19:00;;;;;;;;;;;8.20;79.80;;;;;;5041983;28;20356;-73
2021/01/21 10:21:26;;;;;;;;;;;8.20;79.80;;;;;;5039837;28;20356;-73
2021/01/21 10:23:52;;;;;;;;;;;8.20;79.90;;;;;;5046565;28;19999;-74
2021/01/21 10:26:18;;;;;;;;;;;8.30;79.50;;;;;;5049373;28;19909;-73
2021/01/21 10:28:44;;;;;;;;;;;8.40;78.60;;;;;;5047515;28;19904;-74
2021/01/21 10:31:09;;;;;;;;;;;8.40;78.60;;;;;;5052152;28;19915;-73
2021/01/21 10:33:36;;;;;;;;;;;8.40;78.80;;;;;;5045913;28;19905;-74
2021/01/21 10:36:03;;;;;;;;;;;8.40;78.60;;;;;;5044244;28;19916;-74
2021/01/21 10:38:28;;;;;;;;;;;8.40;77.70;;;;;;5047079;28;20478;-73
2021/01/21 10:40:54;;;;;;;;;;;8.40;77.60;;;;;;5043972;28;19991;-74
2021/01/21 10:43:19;;;;;;;;;;;8.50;77.40;;;;;;5042071;28;19912;-74
2021/01/21 10:45:45;;;;;;;;;;;8.50;77.00;;;;;;5047936;28;20393;-74
2021/01/21 10:48:11;;;;;;;;;;;8.50;76.80;;;;;;5043814;28;19970;-74
2021/01/21 10:50:36;;;;;;;;;;;8.40;75.90;;;;;;5040388;28;20295;-73
2021/01/21 10:53:02;;;;;;;;;;;8.40;75.60;;;;;;5065177;28;20434;-72
2021/01/21 10:55:27;;;;;;;;;;;8.40;75.50;;;;;;5026432;28;19908;-74
2021/01/21 10:57:53;;;;;;;;;;;8.60;75.40;;;;;;5030262;28;19999;-74
2021/01/21 11:00:19;;;;;;;;;;;8.50;75.30;;;;;;5028237;28;19926;-72
2021/01/21 11:02:45;;;;;;;;;;;8.60;74.20;;;;;;5058741;28;20007;-74
2021/01/21 11:05:12;;;;;;;;;;;8.50;74.20;;;;;;5044543;28;19923;-72
2021/01/21 11:07:37;;;;;;;;;;;8.50;74.40;;;;;;5062894;28;19904;-74
2021/01/21 11:10:03;;;;;;;;;;;8.40;74.20;;;;;;5042659;28;19917;-77
2021/01/21 11:12:29;;;;;;;;;;;8.30;74.20;;;;;;5031400;28;20011;-73
2021/01/21 11:14:55;;;;;;;;;;;8.30;73.20;;;;;;5025483;28;20874;-74
2021/01/21 11:17:21;;;;;;;;;;;8.40;72.90;;;;;;5041775;28;19905;-74
2021/01/21 11:19:46;;;;;;;;;;;8.40;72.80;;;;;;5038609;28;19916;-74
2021/01/21 11:22:13;;;;;;;;;;;8.50;73.30;;;;;;5041244;28;19917;-74
2021/01/21 11:24:39;;;;;;;;;;;8.50;73.60;;;;;;5063891;28;19912;-74
2021/01/21 11:27:05;;;;;;;;;;;8.50;73.90;;;;;;5067316;28;20019;-73
2021/01/21 11:29:31;;;;;;;;;;;8.50;73.40;;;;;;5033493;28;20380;-74
2021/01/21 11:31:56;;;;;;;;;;;8.50;73.40;;;;;;5046127;28;19919;-74
2021/01/21 11:34:22;;;;;;;;;;;8.60;73.00;;;;;;5060084;28;19915;-73
2021/01/21 11:36:50;;;;;;;;;;;8.50;72.80;;;;;;5031660;28;19915;-73
2021/01/21 11:39:16;;;;;;;;;;;8.50;74.10;;;;;;5045417;28;19924;-72
2021/01/21 11:41:41;;;;;;;;;;;8.50;73.00;;;;;;5046748;28;20280;-72
2021/01/21 11:44:07;;;;;;;;;;;8.60;72.00;;;;;;5044340;28;19924;-74
2021/01/21 11:46:32;;;;;;;;;;;8.70;71.90;;;;;;5044045;28;20457;-74
2021/01/21 11:48:58;;;;;;;;;;;8.60;71.20;;;;;;5032467;28;20303;-74
2021/01/21 11:51:24;;;;;;;;;;;8.60;72.20;;;;;;5046737;28;19909;-73
2021/01/21 11:53:49;;;;;;;;;;;8.50;70.60;;;;;;5047077;28;20260;-75
2021/01/21 11:56:16;;;;;;;;;;;8.50;71.80;;;;;;5063728;28;19955;-76
2021/01/21 11:58:42;;;;;;;;;;;8.50;70.30;;;;;;5049069;28;19913;-72
2021/01/21 12:01:07;;;;;;;;;;;8.40;69.90;;;;;;5044953;28;19919;-72
2021/01/21 12:03:34;;;;;;;;;;;8.40;70.00;;;;;;5044965;28;20268;-72
2021/01/21 12:06:00;;;;;;;;;;;8.50;70.50;;;;;;5066049;28;19915;-72
2021/01/21 12:08:26;;;;;;;;;;;8.50;71.30;;;;;;5048915;28;19908;-72
2021/01/21 12:10:52;;;;;;;;;;;8.50;70.70;;;;;;5031549;28;19917;-72
2021/01/21 12:13:17;;;;;;;;;;;8.50;70.90;;;;;;5044297;28;19908;-73
2021/01/21 12:15:43;;;;;;;;;;;8.40;70.10;;;;;;5064772;28;19912;-74
2021/01/21 12:18:09;;;;;;;;;;;8.40;69.40;;;;;;5030518;28;19911;-74
2021/01/21 12:20:35;;;;;;;;;;;8.40;69.30;;;;;;5044785;28;19909;-73
2021/01/21 12:23:00;;;;;;;;;;;8.40;70.30;;;;;;5040612;28;19912;-73
2021/01/21 12:25:26;;;;;;;;;;;8.40;70.00;;;;;;5042337;28;19909;-75
2021/01/21 12:27:52;;;;;;;;;;;8.40;68.90;;;;;;5036800;28;19909;-74
2021/01/21 12:30:17;;;;;;;;;;;8.40;68.90;;;;;;5057063;28;19904;-74
2021/01/21 12:32:43;;;;;;;;;;;8.40;69.70;;;;;;5037679;28;19991;-75
2021/01/21 12:35:09;;;;;;;;;;;8.40;68.50;;;;;;5014173;28;19970;-73
2021/01/21 12:37:35;;;;;;;;;;;8.40;68.70;;;;;;5034090;28;19919;-74
2021/01/21 12:40:00;;;;;;;;;;;8.40;69.10;;;;;;5037226;28;19967;-74
2021/01/21 12:42:26;;;;;;;;;;;8.40;68.70;;;;;;5046545;28;19913;-75
2021/01/21 12:44:52;;;;;;;;;;;8.40;69.20;;;;;;5026982;28;19952;-74
2021/01/21 12:47:17;;;;;;;;;;;8.50;68.20;;;;;;5038814;28;19959;-74
2021/01/21 12:49:43;;;;;;;;;;;8.50;67.80;;;;;;5061431;28;20359;-74
2021/01/21 12:52:11;;;;;;;;;;;8.50;68.20;;;;;;5034568;28;19923;-73
2021/01/21 12:54:37;;;;;;;;;;;8.50;68.20;;;;;;5068714;28;19931;-74
2021/01/21 12:57:03;;;;;;;;;;;8.50;68.60;;;;;;5045108;28;19912;-73
2021/01/21 12:59:32;;;;;;;;;;;8.50;67.80;;;;;;5040063;28;19919;-74
2021/01/21 13:01:58;;;;;;;;;;;8.50;67.70;;;;;;5043381;28;20291;-74
2021/01/21 13:04:24;;;;;;;;;;;8.50;68.10;;;;;;5057772;28;19909;-73
2021/01/21 13:06:50;;;;;;;;;;;8.50;67.80;;;;;;5044579;28;19904;-73
2021/01/21 13:09:16;;;;;;;;;;;8.50;68.50;;;;;;5042383;28;19923;-73
2021/01/21 13:11:42;;;;;;;;;;;8.50;68.10;;;;;;5037339;28;19912;-74
2021/01/21 13:14:08;;;;;;;;;;;8.50;68.80;;;;;;5028768;28;19908;-74
2021/01/21 13:16:34;;;;;;;;;;;8.50;68.40;;;;;;5040555;28;19924;-73
2021/01/21 13:19:00;;;;;;;;;;;8.50;69.00;;;;;;5022611;28;19916;-74
2021/01/21 13:21:25;;;;;;;;;;;8.40;68.90;;;;;;5053705;28;20339;-73
2021/01/21 13:23:53;;;;;;;;;;;8.50;68.00;;;;;;5035826;28;19917;-73
2021/01/21 13:26:19;;;;;;;;;;;8.50;68.60;;;;;;5048718;28;19912;-73
2021/01/21 13:28:45;;;;;;;;;;;8.60;67.40;;;;;;5037241;28;20372;-73
2021/01/21 13:31:10;;;;;;;;;;;8.60;67.40;;;;;;5041225;28;20302;-73
2021/01/21 13:33:36;;;;;;;;;;;8.60;67.00;;;;;;5044794;28;19959;-73
2021/01/21 13:36:02;;;;;;;;;;;8.60;67.80;;;;;;5056657;28;20004;-73
2021/01/21 13:39:04;;;;;;;;;;;8.60;68.90;;;;;;5043562;28;19916;-73
2021/01/21 13:41:24;;;;;;;;;;;8.60;67.20;;;;;;5050129;28;19916;-73
2021/01/21 13:43:50;;;;;;;;;;;8.50;68.20;;;;;;5043720;28;20322;-73
2021/01/21 13:46:15;;;;;;;;;;;8.50;69.30;;;;;;5063068;28;19920;-73
2021/01/21 13:48:41;;;;;;;;;;;8.40;68.00;;;;;;5045711;28;19917;-72
2021/01/21 13:51:09;;;;;;;;;;;8.50;68.70;;;;;;5060713;28;19918;-73
2021/01/21 13:53:35;;;;;;;;;;;8.50;68.30;;;;;;5041070;28;20350;-73
2021/01/21 13:56:03;;;;;;;;;;;8.50;68.20;;;;;;5044187;28;19996;-73
2021/01/21 13:58:32;;;;;;;;;;;8.50;68.90;;;;;;5021079;28;19928;-76
2021/01/21 14:00:59;;;;;;;;;;;8.50;68.50;;;;;;5034532;28;20352;-73
2021/01/21 14:03:25;;;;;;;;;;;8.60;67.80;;;;;;5046744;28;19912;-73
2021/01/21 14:05:51;;;;;;;;;;;8.60;68.10;;;;;;5041404;28;20411;-74
2021/01/21 14:08:17;;;;;;;;;;;8.60;68.50;;;;;;5067509;28;19912;-73
2021/01/21 14:10:45;;;;;;;;;;;8.60;68.20;;;;;;5065634;28;19908;-73
2021/01/21 14:13:12;;;;;;;;;;;8.60;67.10;;;;;;5039789;28;20360;-73
2021/01/21 14:15:38;;;;;;;;;;;8.60;67.60;;;;;;5067000;28;20002;-73
2021/01/21 14:18:06;;;;;;;;;;;8.60;68.60;;;;;;5050257;28;19924;-73
2021/01/21 14:20:32;;;;;;;;;;;8.60;68.10;;;;;;5067849;28;19912;-73
2021/01/21 14:22:57;;;;;;;;;;;8.60;67.50;;;;;;5042908;28;19931;-73
2021/01/21 14:25:23;;;;;;;;;;;8.60;68.40;;;;;;5062038;28;19912;-73
2021/01/21 14:27:48;;;;;;;;;;;8.60;67.70;;;;;;5065068;28;19999;-73
2021/01/21 14:30:14;;;;;;;;;;;8.60;67.70;;;;;;5041805;28;19912;-73